createdAt,value
2018-03-06T00:00:03.548Z,16.98
2018-03-06T00:01:07.928Z,17.08
2018-03-06T00:02:13.008Z,16.05
2018-03-06T00:03:17.045Z,13.48
2018-03-06T00:04:21.345Z,18.92
2018-03-06T00:05:26.238Z,15.23
2018-03-06T00:06:30.466Z,16.65
2018-03-06T00:07:34.521Z,14.27
2018-03-06T00:08:38.751Z,21.00
2018-03-06T00:09:42.838Z,14.30
2018-03-06T00:10:47.581Z,18.02
2018-03-06T00:11:52.416Z,13.25
2018-03-06T00:12:57.259Z,16.42
2018-03-06T00:14:01.286Z,13.93
2018-03-06T00:15:05.276Z,15.75
2018-03-06T00:16:09.437Z,18.02
2018-03-06T00:17:13.566Z,49.55
2018-03-06T00:18:17.522Z,37.63
2018-03-06T00:19:21.404Z,38.55
2018-03-06T00:20:25.389Z,27.62
2018-03-06T00:21:29.345Z,18.73
2018-03-06T00:22:33.241Z,20.08
2018-03-06T00:23:37.566Z,22.87
2018-03-06T00:24:41.445Z,22.05
2018-03-06T00:25:45.370Z,27.40
2018-03-06T00:26:49.610Z,23.42
2018-03-06T00:27:53.502Z,28.80
2018-03-06T00:28:57.354Z,17.77
2018-03-06T00:30:01.658Z,25.85
2018-03-06T00:31:06.402Z,18.00
2018-03-06T00:32:10.399Z,23.00
2018-03-06T00:33:14.296Z,20.27
2018-03-06T00:34:18.155Z,19.75
2018-03-06T00:35:22.043Z,19.70
2018-03-06T00:36:25.914Z,19.27
2018-03-06T00:37:30.006Z,18.83
2018-03-06T00:38:33.880Z,21.80
2018-03-06T00:39:37.918Z,23.00
2018-03-06T00:40:41.957Z,20.55
2018-03-06T00:41:47.051Z,22.40
2018-03-06T00:42:51.501Z,27.45
2018-03-06T00:43:55.672Z,21.73
2018-03-06T00:45:00.731Z,20.88
2018-03-06T00:46:04.786Z,21.52
2018-03-06T00:47:09.100Z,24.33
2018-03-06T00:48:13.400Z,17.70
2018-03-06T00:49:17.634Z,17.40
2018-03-06T00:50:22.541Z,21.55
2018-03-06T00:51:27.369Z,20.85
2018-03-06T00:52:31.422Z,21.80
2018-03-06T00:53:37.076Z,20.58
2018-03-06T00:54:41.363Z,20.85
2018-03-06T00:55:45.445Z,20.15
2018-03-06T00:56:49.760Z,22.08
2018-03-06T00:57:53.732Z,20.20
2018-03-06T00:58:57.914Z,19.45
2018-03-06T01:00:03.247Z,16.70
2018-03-06T01:01:07.343Z,24.73
2018-03-06T01:02:11.983Z,27.17
2018-03-06T01:03:16.640Z,25.00
2018-03-06T01:04:20.636Z,24.40
2018-03-06T01:06:27.188Z,25.67
2018-03-06T01:07:31.102Z,22.25
2018-03-06T01:08:36.212Z,24.58
2018-03-06T01:09:42.238Z,21.42
2018-03-06T01:10:46.365Z,31.30
2018-03-06T01:11:50.930Z,24.87
2018-03-06T01:12:56.385Z,25.20
2018-03-06T01:14:01.225Z,24.05
2018-03-06T01:15:06.468Z,32.97
2018-03-06T01:16:10.533Z,38.17
2018-03-06T01:17:15.257Z,30.55
2018-03-06T01:18:19.535Z,32.63
2018-03-06T01:19:23.765Z,30.37
2018-03-06T01:20:28.090Z,25.98
2018-03-06T01:21:32.843Z,27.83
2018-03-06T01:22:36.974Z,25.77
2018-03-06T01:23:41.794Z,28.38
2018-03-06T01:24:46.673Z,32.20
2018-03-06T01:25:50.663Z,30.02
2018-03-06T01:26:55.114Z,34.78
2018-03-06T01:27:59.649Z,27.85
2018-03-06T01:29:04.233Z,25.10
2018-03-06T01:30:08.577Z,29.35
2018-03-06T01:31:13.173Z,32.97
2018-03-06T01:32:17.296Z,25.33
2018-03-06T01:33:21.674Z,34.65
2018-03-06T01:34:26.592Z,35.33
2018-03-06T01:35:30.429Z,32.08
2018-03-06T01:36:34.823Z,31.00
2018-03-06T01:37:39.464Z,30.48
2018-03-06T01:38:43.384Z,28.87
2018-03-06T01:39:47.242Z,29.60
2018-03-06T01:40:51.130Z,26.33
2018-03-06T01:41:55.066Z,28.70
2018-03-06T01:42:59.407Z,30.55
2018-03-06T01:44:03.350Z,27.15
2018-03-06T01:45:07.309Z,34.13
2018-03-06T01:46:11.929Z,26.30
2018-03-06T01:47:15.818Z,32.03
2018-03-06T01:48:19.842Z,33.00
2018-03-06T01:49:24.511Z,30.62
2018-03-06T01:50:28.740Z,32.25
2018-03-06T01:51:42.254Z,27.57
2018-03-06T01:52:46.529Z,33.63
2018-03-06T01:53:50.874Z,31.25
2018-03-06T01:54:54.970Z,30.33
2018-03-06T01:55:59.124Z,26.65
2018-03-06T01:57:03.793Z,29.90
2018-03-06T01:58:07.823Z,25.98
2018-03-06T01:59:12.194Z,26.83
2018-03-06T02:00:16.222Z,30.17
2018-03-06T02:01:20.834Z,30.12
2018-03-06T02:02:26.150Z,28.93
2018-03-06T02:03:30.659Z,26.20
2018-03-06T02:04:35.253Z,32.30
2018-03-06T02:05:40.109Z,24.63
2018-03-06T02:06:44.805Z,29.52
2018-03-06T02:07:48.799Z,32.30
2018-03-06T02:08:53.129Z,31.33
2018-03-06T02:09:57.596Z,26.55
2018-03-06T02:11:01.638Z,28.40
2018-03-06T02:12:06.008Z,30.37
2018-03-06T02:13:10.234Z,28.42
2018-03-06T02:14:14.694Z,27.17
2018-03-06T02:15:19.001Z,29.25
2018-03-06T02:16:24.284Z,30.73
2018-03-06T02:17:28.188Z,30.53
2018-03-06T02:18:32.179Z,29.42
2018-03-06T02:19:36.488Z,30.33
2018-03-06T02:20:41.614Z,28.43
2018-03-06T02:21:45.523Z,34.93
2018-03-06T02:22:49.349Z,32.83
2018-03-06T02:23:53.233Z,29.15
2018-03-06T02:24:57.214Z,30.75
2018-03-06T02:26:01.711Z,28.58
2018-03-06T02:27:06.241Z,33.45
2018-03-06T02:28:10.296Z,34.50
2018-03-06T02:29:14.686Z,45.93
2018-03-06T02:30:18.891Z,35.53
2018-03-06T02:31:22.945Z,35.72
2018-03-06T02:32:26.968Z,31.08
2018-03-06T02:33:32.590Z,28.10
2018-03-06T02:34:37.497Z,32.72
2018-03-06T02:35:41.501Z,34.65
2018-03-06T02:36:45.818Z,37.97
2018-03-06T02:37:49.718Z,35.85
2018-03-06T02:38:54.522Z,31.15
2018-03-06T02:39:59.354Z,32.72
2018-03-06T02:41:03.230Z,31.98
2018-03-06T02:42:07.517Z,210.13
2018-03-06T02:43:11.649Z,83.68
2018-03-06T02:44:16.163Z,77.43
2018-03-06T02:45:20.406Z,53.10
2018-03-06T02:46:24.375Z,54.08
2018-03-06T02:47:28.674Z,40.00
2018-03-06T02:48:33.298Z,41.47
2018-03-06T02:49:37.497Z,40.90
2018-03-06T02:50:41.803Z,32.03
2018-03-06T02:51:46.470Z,36.92
2018-03-06T02:52:50.994Z,30.42
2018-03-06T02:53:55.615Z,37.42
2018-03-06T02:54:59.688Z,37.53
2018-03-06T02:56:03.805Z,36.00
2018-03-06T02:57:07.821Z,27.67
2018-03-06T02:58:12.163Z,31.92
2018-03-06T02:59:16.578Z,33.28
2018-03-06T03:00:22.198Z,36.80
2018-03-06T03:01:26.236Z,37.88
2018-03-06T03:02:30.198Z,35.13
2018-03-06T03:03:34.314Z,31.83
2018-03-06T03:04:39.023Z,39.95
2018-03-06T03:05:43.118Z,37.88
2018-03-06T03:06:47.161Z,36.67
2018-03-06T03:07:51.333Z,41.47
2018-03-06T03:08:55.426Z,38.92
2018-03-06T03:09:59.540Z,37.45
2018-03-06T03:12:32.780Z,33.45
2018-03-06T03:13:37.423Z,33.05
2018-03-06T03:14:41.747Z,36.85
2018-03-06T03:15:45.849Z,34.85
2018-03-06T03:16:49.952Z,39.63
2018-03-06T03:17:54.057Z,35.73
2018-03-06T03:18:59.175Z,37.57
2018-03-06T03:20:04.311Z,39.00
2018-03-06T03:21:08.136Z,37.13
2018-03-06T03:22:12.067Z,32.65
2018-03-06T03:23:16.206Z,34.55
2018-03-06T03:24:21.011Z,38.45
2018-03-06T03:25:25.147Z,38.80
2018-03-06T03:26:28.945Z,38.13
2018-03-06T03:27:33.637Z,35.03
2018-03-06T03:28:38.290Z,31.65
2018-03-06T03:29:42.249Z,34.50
2018-03-06T03:30:46.253Z,34.50
2018-03-06T03:31:50.142Z,37.10
2018-03-06T03:32:54.353Z,35.80
2018-03-06T03:33:58.447Z,37.40
2018-03-06T03:35:02.556Z,37.78
2018-03-06T03:36:06.660Z,41.17
2018-03-06T03:37:10.717Z,33.15
2018-03-06T03:38:15.008Z,37.22
2018-03-06T03:39:19.784Z,37.42
2018-03-06T03:40:25.688Z,39.88
2018-03-06T03:41:30.143Z,41.45
2018-03-06T03:42:35.145Z,35.10
2018-03-06T03:43:39.519Z,39.03
2018-03-06T03:44:43.806Z,35.55
2018-03-06T03:45:49.472Z,39.72
2018-03-06T03:46:54.105Z,36.55
2018-03-06T03:47:58.020Z,38.10
2018-03-06T03:49:01.979Z,39.47
2018-03-06T03:50:06.439Z,40.15
2018-03-06T03:51:10.364Z,37.25
2018-03-06T03:52:14.948Z,39.43
2018-03-06T03:53:19.264Z,33.33
2018-03-06T03:54:23.138Z,41.15
2018-03-06T03:55:27.029Z,71.20
2018-03-06T03:56:32.775Z,45.58
2018-03-06T03:57:37.030Z,44.28
2018-03-06T03:58:41.723Z,39.58
2018-03-06T03:59:45.764Z,40.33
2018-03-06T04:00:50.074Z,42.88
2018-03-06T04:01:54.180Z,39.97
2018-03-06T04:02:58.258Z,37.10
2018-03-06T04:04:02.305Z,39.38
2018-03-06T04:05:06.425Z,38.10
2018-03-06T04:06:11.262Z,38.25
2018-03-06T04:07:15.349Z,42.15
2018-03-06T04:08:20.202Z,37.90
2018-03-06T04:09:24.226Z,38.58
2018-03-06T04:10:28.320Z,34.45
2018-03-06T04:11:32.348Z,40.22
2018-03-06T04:12:36.425Z,41.37
2018-03-06T04:13:40.485Z,40.00
2018-03-06T04:14:44.523Z,39.50
2018-03-06T04:15:48.345Z,43.10
2018-03-06T04:16:52.243Z,42.33
2018-03-06T04:17:56.085Z,40.80
2018-03-06T04:19:00.871Z,44.85
2018-03-06T04:20:04.916Z,39.17
2018-03-06T04:21:08.789Z,42.72
2018-03-06T04:22:12.704Z,35.65
2018-03-06T04:23:16.660Z,42.13
2018-03-06T04:24:20.745Z,39.45
2018-03-06T04:25:24.847Z,41.65
2018-03-06T04:26:28.699Z,40.80
2018-03-06T04:27:32.626Z,45.38
2018-03-06T04:28:36.569Z,42.05
2018-03-06T04:29:40.670Z,45.67
2018-03-06T04:30:44.518Z,46.60
2018-03-06T04:31:48.661Z,37.42
2018-03-06T04:32:52.527Z,38.60
2018-03-06T04:33:56.650Z,42.38
2018-03-06T04:35:00.551Z,43.40
2018-03-06T04:36:04.438Z,40.10
2018-03-06T04:37:08.319Z,44.15
2018-03-06T04:38:12.134Z,43.78
2018-03-06T04:39:16.045Z,42.97
2018-03-06T04:40:19.917Z,43.30
2018-03-06T04:41:23.803Z,42.85
2018-03-06T04:42:27.652Z,45.15
2018-03-06T04:43:31.577Z,44.70
2018-03-06T04:44:35.429Z,38.93
2018-03-06T04:45:39.312Z,41.75
2018-03-06T04:46:43.428Z,36.35
2018-03-06T04:47:47.293Z,39.83
2018-03-06T04:48:51.110Z,37.95
2018-03-06T04:49:55.000Z,43.03
2018-03-06T04:50:59.102Z,41.08
2018-03-06T04:52:03.237Z,44.08
2018-03-06T04:53:09.456Z,43.70
2018-03-06T04:54:13.552Z,39.45
2018-03-06T04:55:17.805Z,39.90
2018-03-06T04:56:22.057Z,43.17
2018-03-06T04:57:26.089Z,43.80
2018-03-06T04:58:30.870Z,43.95
2018-03-06T04:59:35.064Z,41.47
2018-03-06T05:00:39.250Z,47.78
2018-03-06T05:01:43.539Z,46.43
2018-03-06T05:02:47.821Z,45.58
2018-03-06T05:03:52.448Z,41.90
2018-03-06T05:04:56.698Z,39.92
2018-03-06T05:06:00.955Z,43.30
2018-03-06T05:07:05.245Z,44.10
2018-03-06T05:08:09.769Z,39.67
2018-03-06T05:09:14.748Z,43.95
2018-03-06T05:10:19.186Z,43.42
2018-03-06T05:11:23.609Z,43.75
2018-03-06T05:12:27.665Z,45.33
2018-03-06T05:13:31.766Z,42.08
2018-03-06T05:14:36.013Z,43.35
2018-03-06T05:15:40.149Z,40.65
2018-03-06T05:16:44.410Z,43.47
2018-03-06T05:17:49.055Z,44.35
2018-03-06T05:18:53.283Z,43.53
2018-03-06T05:19:57.486Z,43.25
2018-03-06T05:21:02.280Z,41.05
2018-03-06T05:22:06.493Z,41.53
2018-03-06T05:23:10.957Z,48.97
2018-03-06T05:24:15.164Z,52.40
2018-03-06T05:25:19.424Z,44.08
2018-03-06T05:26:24.165Z,42.35
2018-03-06T05:27:28.101Z,45.10
2018-03-06T05:28:33.292Z,40.77
2018-03-06T05:29:39.484Z,47.60
2018-03-06T05:30:43.905Z,46.60
2018-03-06T05:31:49.061Z,44.80
2018-03-06T05:32:54.264Z,43.95
2018-03-06T05:33:58.853Z,44.53
2018-03-06T05:35:03.610Z,43.22
2018-03-06T05:36:08.588Z,45.60
2018-03-06T05:37:13.167Z,101.62
2018-03-06T05:38:18.189Z,59.03
2018-03-06T05:39:23.093Z,52.83
2018-03-06T05:40:28.930Z,50.15
2018-03-06T05:41:33.212Z,53.30
2018-03-06T05:42:37.945Z,44.20
2018-03-06T05:43:42.210Z,48.10
2018-03-06T05:44:46.491Z,43.35
2018-03-06T05:45:50.818Z,43.65
2018-03-06T05:46:56.040Z,46.67
2018-03-06T05:48:01.358Z,46.87
2018-03-06T05:49:06.823Z,46.75
2018-03-06T05:50:11.148Z,47.70
2018-03-06T05:51:15.527Z,50.47
2018-03-06T05:52:19.883Z,49.50
2018-03-06T05:53:24.191Z,53.67
2018-03-06T05:54:29.046Z,52.47
2018-03-06T05:55:33.451Z,45.95
2018-03-06T05:56:40.551Z,51.05
2018-03-06T05:57:44.711Z,54.28
2018-03-06T05:58:49.790Z,56.10
2018-03-06T05:59:54.306Z,49.55
2018-03-06T06:00:58.435Z,53.93
2018-03-06T06:02:02.719Z,52.40
2018-03-06T06:03:06.824Z,51.10
2018-03-06T06:04:11.006Z,52.67
2018-03-06T06:05:14.902Z,47.75
2018-03-06T06:06:19.218Z,55.17
2018-03-06T06:07:24.419Z,49.38
2018-03-06T06:16:06.590Z,54.88
2018-03-06T06:17:10.639Z,56.72
2018-03-06T06:18:14.672Z,53.05
2018-03-06T06:19:18.794Z,49.85
2018-03-06T06:20:22.785Z,53.25
2018-03-06T06:21:26.845Z,53.03
2018-03-06T06:22:30.923Z,49.03
2018-03-06T06:23:34.889Z,50.88
2018-03-06T06:24:39.015Z,54.92
2018-03-06T06:25:42.865Z,51.17
2018-03-06T06:26:47.581Z,58.00
2018-03-06T06:27:51.474Z,73.90
2018-03-06T06:28:56.258Z,96.37
2018-03-06T06:30:00.065Z,74.82
2018-03-06T06:31:03.929Z,58.65
2018-03-06T06:32:08.011Z,49.17
2018-03-06T06:33:13.353Z,57.38
2018-03-06T06:34:17.413Z,52.20
2018-03-06T06:35:22.093Z,47.78
2018-03-06T06:36:26.824Z,56.70
2018-03-06T06:37:30.665Z,58.80
2018-03-06T06:38:34.465Z,53.38
2018-03-06T06:39:38.463Z,55.92
2018-03-06T06:40:42.640Z,54.07
2018-03-06T06:41:47.448Z,55.70
2018-03-06T06:42:51.527Z,56.80
2018-03-06T06:43:55.592Z,53.17
2018-03-06T06:44:59.974Z,51.83
2018-03-06T06:46:04.949Z,56.05
2018-03-06T06:47:08.979Z,54.40
2018-03-06T06:48:13.136Z,58.33
2018-03-06T06:49:17.278Z,54.17
2018-03-06T06:50:21.161Z,57.55
2018-03-06T06:51:24.994Z,60.60
2018-03-06T06:52:29.643Z,56.50
2018-03-06T06:53:33.671Z,54.30
2018-03-06T06:54:37.589Z,52.15
2018-03-06T06:55:41.468Z,53.55
2018-03-06T06:56:45.292Z,58.45
2018-03-06T06:57:49.909Z,58.97
2018-03-06T06:58:54.641Z,62.97
2018-03-06T06:59:59.259Z,55.97
2018-03-06T07:01:03.885Z,56.80
2018-03-06T07:02:07.850Z,56.37
2018-03-06T07:03:11.999Z,56.25
2018-03-06T07:04:15.893Z,58.90
2018-03-06T07:05:19.718Z,54.50
2018-03-06T07:06:23.551Z,56.30
2018-03-06T07:07:28.210Z,54.60
2018-03-06T07:08:32.024Z,63.03
2018-03-06T07:09:35.897Z,60.12
2018-03-06T07:10:39.693Z,58.10
2018-03-06T07:11:43.521Z,58.73
2018-03-06T07:12:47.390Z,57.90
2018-03-06T07:13:51.199Z,56.85
2018-03-06T07:14:55.061Z,51.72
2018-03-06T07:15:58.937Z,60.03
2018-03-06T07:17:03.548Z,57.55
2018-03-06T07:18:08.100Z,57.78
2018-03-06T07:19:11.990Z,51.97
2018-03-06T07:20:16.057Z,57.15
2018-03-06T07:21:20.820Z,55.42
2018-03-06T07:22:24.598Z,59.30
2018-03-06T07:23:28.581Z,63.65
2018-03-06T07:24:33.309Z,55.60
2018-03-06T07:25:37.333Z,60.05
2018-03-06T07:26:41.350Z,55.43
2018-03-06T07:27:46.142Z,58.40
2018-03-06T07:28:50.319Z,59.88
2018-03-06T07:29:55.153Z,66.05
2018-03-06T07:30:58.990Z,64.90
2018-03-06T07:32:02.912Z,87.47
2018-03-06T07:33:06.786Z,65.50
2018-03-06T07:34:10.786Z,63.58
2018-03-06T07:35:14.604Z,58.13
2018-03-06T07:36:18.813Z,57.72
2018-03-06T07:37:23.469Z,58.10
2018-03-06T07:38:27.289Z,64.95
2018-03-06T07:39:31.173Z,65.32
2018-03-06T07:40:35.099Z,63.92
2018-03-06T07:41:38.913Z,63.75
2018-03-06T07:42:42.777Z,60.67
2018-03-06T07:43:46.630Z,62.70
2018-03-06T07:44:50.443Z,63.20
2018-03-06T07:45:54.369Z,61.73
2018-03-06T07:46:58.237Z,55.78
2018-03-06T07:48:02.052Z,62.05
2018-03-06T07:49:05.931Z,63.03
2018-03-06T07:50:09.834Z,64.57
2018-03-06T07:51:13.920Z,56.37
2018-03-06T07:52:18.997Z,65.60
2018-03-06T07:53:23.025Z,61.50
2018-03-06T07:54:27.891Z,62.90
2018-03-06T07:55:32.171Z,61.03
2018-03-06T07:56:36.645Z,62.85
2018-03-06T07:57:40.754Z,62.53
2018-03-06T07:58:44.858Z,56.58
2018-03-06T07:59:48.951Z,70.10
2018-03-06T08:00:53.015Z,69.32
2018-03-06T08:01:57.810Z,64.07
2018-03-06T08:03:02.614Z,65.57
2018-03-06T08:04:07.409Z,59.08
2018-03-06T08:05:11.769Z,64.57
2018-03-06T08:06:15.852Z,59.88
2018-03-06T08:07:19.791Z,59.33
2018-03-06T08:08:23.821Z,69.40
2018-03-06T08:09:28.156Z,79.10
2018-03-06T08:10:32.485Z,72.37
2018-03-06T08:11:36.694Z,68.28
2018-03-06T08:12:40.719Z,69.00
2018-03-06T08:13:44.721Z,64.25
2018-03-06T08:14:48.980Z,57.67
2018-03-06T08:15:53.701Z,55.40
2018-03-06T08:16:57.717Z,60.40
2018-03-06T08:18:01.632Z,72.43
2018-03-06T08:19:05.529Z,85.72
2018-03-06T08:20:10.146Z,65.18
2018-03-06T08:21:14.014Z,68.70
2018-03-06T08:22:17.945Z,66.18
2018-03-06T08:23:21.775Z,62.92
2018-03-06T08:24:26.446Z,61.55
2018-03-06T08:25:33.374Z,67.40
2018-03-06T08:26:37.365Z,59.90
2018-03-06T08:27:42.027Z,61.30
2018-03-06T08:28:45.898Z,64.80
2018-03-06T08:29:50.565Z,68.40
2018-03-06T08:30:55.253Z,63.22
2018-03-06T08:31:59.152Z,64.55
2018-03-06T08:33:03.101Z,58.83
2018-03-06T08:34:07.759Z,58.42
2018-03-06T08:35:11.599Z,64.10
2018-03-06T08:36:16.418Z,73.82
2018-03-06T08:37:21.137Z,65.22
2018-03-06T08:38:25.998Z,67.30
2018-03-06T08:39:30.032Z,67.18
2018-03-06T08:40:34.094Z,63.00
2018-03-06T08:41:38.154Z,56.33
2018-03-06T08:42:42.195Z,66.40
2018-03-06T08:43:46.167Z,67.28
2018-03-06T08:44:50.970Z,61.85
2018-03-06T08:45:54.948Z,62.60
2018-03-06T08:46:58.823Z,108.28
2018-03-06T08:48:02.696Z,71.87
2018-03-06T08:49:06.713Z,65.25
2018-03-06T08:50:10.529Z,58.55
2018-03-06T08:51:14.713Z,64.82
2018-03-06T08:52:18.602Z,61.60
2018-03-06T08:53:22.546Z,64.37
2018-03-06T08:54:26.902Z,62.55
2018-03-06T08:55:30.965Z,62.17
2018-03-06T08:56:38.637Z,69.18
2018-03-06T08:57:42.713Z,65.22
2018-03-06T08:58:46.677Z,66.47
2018-03-06T08:59:51.553Z,64.00
2018-03-06T09:00:55.538Z,57.97
2018-03-06T09:01:59.609Z,69.22
2018-03-06T09:03:03.577Z,62.00
2018-03-06T09:04:08.386Z,68.97
2018-03-06T09:05:12.342Z,62.83
2018-03-06T09:06:16.582Z,61.83
2018-03-06T09:07:20.591Z,64.28
2018-03-06T09:08:24.693Z,68.53
2018-03-06T09:09:28.701Z,63.37
2018-03-06T09:10:33.422Z,65.93
2018-03-06T09:11:38.241Z,74.43
2018-03-06T09:12:42.974Z,64.53
2018-03-06T09:13:47.206Z,67.35
2018-03-06T09:14:52.388Z,63.17
2018-03-06T09:15:57.174Z,68.62
2018-03-06T09:17:01.272Z,66.32
2018-03-06T09:18:05.336Z,66.78
2018-03-06T09:19:09.392Z,73.57
2018-03-06T09:20:13.464Z,103.80
2018-03-06T09:21:18.135Z,71.07
2018-03-06T09:22:23.874Z,70.20
2018-03-06T09:23:28.696Z,68.80
2018-03-06T09:24:33.609Z,68.20
2018-03-06T09:25:37.605Z,65.53
2018-03-06T09:26:42.724Z,65.55
2018-03-06T09:27:47.485Z,78.43
2018-03-06T09:28:51.552Z,82.00
2018-03-06T09:29:56.305Z,67.80
2018-03-06T09:31:01.045Z,65.63
2018-03-06T09:32:05.087Z,65.37
2018-03-06T09:33:09.950Z,69.75
2018-03-06T09:34:13.945Z,69.45
2018-03-06T09:35:17.942Z,67.05
2018-03-06T09:36:21.971Z,75.13
2018-03-06T09:37:25.981Z,70.68
2018-03-06T09:38:30.776Z,66.70
2018-03-06T09:39:34.817Z,63.10
2018-03-06T09:40:39.570Z,65.07
2018-03-06T09:41:43.596Z,68.77
2018-03-06T09:42:47.600Z,70.93
2018-03-06T09:43:51.579Z,65.60
2018-03-06T09:44:55.632Z,67.18
2018-03-06T09:45:59.674Z,76.35
2018-03-06T09:47:03.761Z,85.53
2018-03-06T09:48:07.829Z,89.20
2018-03-06T09:49:12.173Z,68.55
2018-03-06T09:50:16.169Z,65.22
2018-03-06T09:51:21.002Z,63.97
2018-03-06T09:52:25.090Z,65.87
2018-03-06T09:53:29.824Z,66.70
2018-03-06T09:54:33.939Z,71.03
2018-03-06T09:55:37.978Z,61.17
2018-03-06T09:56:41.997Z,65.85
2018-03-06T09:57:46.749Z,67.47
2018-03-06T09:58:50.874Z,68.60
2018-03-06T09:59:54.935Z,62.67
2018-03-06T10:00:58.922Z,73.50
2018-03-06T10:02:03.805Z,69.00
2018-03-06T10:03:07.756Z,70.95
2018-03-06T10:04:11.621Z,66.20
2018-03-06T10:05:15.560Z,65.90
2018-03-06T10:06:19.572Z,66.22
2018-03-06T10:07:23.579Z,67.05
2018-03-06T10:08:27.585Z,76.10
2018-03-06T10:09:31.570Z,67.43
2018-03-06T10:10:35.641Z,63.28
2018-03-06T10:11:39.717Z,64.57
2018-03-06T10:12:43.668Z,59.53
2018-03-06T10:13:47.728Z,67.45
2018-03-06T10:14:51.852Z,65.05
2018-03-06T10:15:55.811Z,63.10
2018-03-06T10:16:59.731Z,61.75
2018-03-06T10:18:04.404Z,63.97
2018-03-06T10:19:08.328Z,59.08
2018-03-06T10:20:12.301Z,61.35
2018-03-06T10:21:16.134Z,64.95
2018-03-06T10:22:20.743Z,61.23
2018-03-06T10:23:25.540Z,69.00
2018-03-06T10:24:29.627Z,64.15
2018-03-06T10:25:33.858Z,63.97
2018-03-06T10:26:37.770Z,68.82
2018-03-06T10:27:42.385Z,93.72
2018-03-06T10:28:47.068Z,63.63
2018-03-06T10:29:51.153Z,59.22
2018-03-06T10:30:55.306Z,57.40
2018-03-06T10:31:59.998Z,60.00
2018-03-06T10:33:03.819Z,60.38
2018-03-06T10:34:07.933Z,54.40
2018-03-06T10:35:13.084Z,59.33
2018-03-06T10:36:17.334Z,58.57
2018-03-06T10:37:21.243Z,57.90
2018-03-06T10:38:25.282Z,60.50
2018-03-06T10:39:29.357Z,57.47
2018-03-06T10:40:33.438Z,60.65
2018-03-06T10:41:37.292Z,61.45
2018-03-06T10:42:41.158Z,65.57
2018-03-06T10:43:45.219Z,57.53
2018-03-06T10:44:49.455Z,66.30
2018-03-06T10:45:54.331Z,61.95
2018-03-06T10:46:58.420Z,62.03
2018-03-06T10:48:02.566Z,70.15
2018-03-06T10:49:07.109Z,61.55
2018-03-06T10:50:12.089Z,64.32
2018-03-06T10:51:16.138Z,54.95
2018-03-06T10:52:20.174Z,56.78
2018-03-06T10:53:24.241Z,56.92
2018-03-06T10:54:29.109Z,59.60
2018-03-06T10:55:33.168Z,60.20
2018-03-06T10:56:37.003Z,59.72
2018-03-06T10:57:40.817Z,55.25
2018-03-06T10:58:44.708Z,58.30
2018-03-06T10:59:48.583Z,62.00
2018-03-06T11:00:54.567Z,54.58
2018-03-06T11:01:59.567Z,55.12
2018-03-06T11:03:04.427Z,55.03
2018-03-06T11:04:09.051Z,55.50
2018-03-06T11:05:13.439Z,55.85
2018-03-06T11:06:18.369Z,59.13
2018-03-06T11:07:23.006Z,60.70
2018-03-06T11:08:26.806Z,53.75
2018-03-06T11:09:30.713Z,51.03
2018-03-06T11:10:34.553Z,56.63
2018-03-06T11:11:38.504Z,55.90
2018-03-06T11:12:42.508Z,65.30
2018-03-06T11:13:46.402Z,52.30
2018-03-06T11:14:50.293Z,57.95
2018-03-06T11:15:54.463Z,55.05
2018-03-06T11:16:59.412Z,101.77
2018-03-06T11:18:03.435Z,73.90
2018-03-06T11:19:07.416Z,51.03
2018-03-06T11:20:11.485Z,55.78
2018-03-06T11:21:16.294Z,57.25
2018-03-06T11:22:20.195Z,59.60
2018-03-06T11:23:24.133Z,54.63
2018-03-06T11:24:28.038Z,52.33
2018-03-06T11:25:31.891Z,54.20
2018-03-06T11:26:36.124Z,56.40
2018-03-06T11:27:40.825Z,52.65
2018-03-06T11:28:45.524Z,56.92
2018-03-06T11:29:49.642Z,53.55
2018-03-06T11:30:55.014Z,60.05
2018-03-06T11:31:59.073Z,52.92
2018-03-06T11:33:04.018Z,50.63
2018-03-06T11:34:08.119Z,54.25
2018-03-06T11:35:12.176Z,56.50
2018-03-06T11:36:16.674Z,53.15
2018-03-06T11:37:20.928Z,54.63
2018-03-06T11:38:24.756Z,54.90
2018-03-06T11:39:28.815Z,53.17
2018-03-06T11:40:33.577Z,48.30
2018-03-06T11:41:37.619Z,48.55
2018-03-06T11:42:41.763Z,51.65
2018-03-06T11:43:45.906Z,50.25
2018-03-06T11:44:49.901Z,51.33
2018-03-06T11:45:53.960Z,57.08
2018-03-06T11:46:58.052Z,53.87
2018-03-06T11:48:02.110Z,57.53
2018-03-06T11:49:06.240Z,56.23
2018-03-06T11:50:11.112Z,48.33
2018-03-06T11:51:15.257Z,51.47
2018-03-06T11:52:20.113Z,49.25
2018-03-06T11:53:24.172Z,53.70
2018-03-06T11:54:28.228Z,50.95
2018-03-06T11:55:32.568Z,47.10
2018-03-06T11:56:36.729Z,48.85
2018-03-06T11:57:40.855Z,46.67
2018-03-06T11:58:44.855Z,49.23
2018-03-06T11:59:48.770Z,49.05
2018-03-06T12:00:52.678Z,49.70
2018-03-06T12:01:56.790Z,46.45
2018-03-06T12:03:01.514Z,43.53
2018-03-06T12:04:06.197Z,47.03
2018-03-06T12:05:10.468Z,48.78
2018-03-06T12:06:14.875Z,50.63
2018-03-06T12:07:19.030Z,44.33
2018-03-06T12:08:23.118Z,43.67
2018-03-06T12:09:29.996Z,43.20
2018-03-06T12:10:34.017Z,40.83
2018-03-06T12:11:38.877Z,42.45
2018-03-06T12:12:42.902Z,45.67
2018-03-06T12:13:47.255Z,42.67
2018-03-06T12:14:51.407Z,39.40
2018-03-06T12:15:55.504Z,37.63
2018-03-06T12:16:59.541Z,44.38
2018-03-06T12:18:04.232Z,41.40
2018-03-06T12:19:08.156Z,41.55
2018-03-06T12:20:12.873Z,52.17
2018-03-06T12:21:17.756Z,43.70
2018-03-06T12:22:21.625Z,45.25
2018-03-06T12:23:25.553Z,40.35
2018-03-06T12:24:29.444Z,47.40
2018-03-06T12:25:33.888Z,43.50
2018-03-06T12:26:38.619Z,44.78
2018-03-06T12:27:43.314Z,42.30
2018-03-06T12:28:47.239Z,44.58
2018-03-06T12:29:51.213Z,42.00
2018-03-06T12:30:56.113Z,44.20
2018-03-06T12:32:00.012Z,44.00
2018-03-06T12:33:04.044Z,47.65
2018-03-06T12:34:08.380Z,35.03
2018-03-06T12:35:12.746Z,43.75
2018-03-06T12:36:17.494Z,44.30
2018-03-06T12:37:21.917Z,43.10
2018-03-06T12:38:26.217Z,42.30
2018-03-06T12:39:30.310Z,45.78
2018-03-06T12:40:35.277Z,44.05
2018-03-06T12:41:43.926Z,43.20
2018-03-06T12:42:51.927Z,48.40
2018-03-06T12:43:56.748Z,50.88
2018-03-06T12:45:01.356Z,45.80
2018-03-06T12:46:05.273Z,44.95
2018-03-06T12:47:09.168Z,46.23
2018-03-06T12:48:13.004Z,46.25
2018-03-06T12:49:17.101Z,41.97
2018-03-06T12:50:21.480Z,46.15
2018-03-06T12:51:26.211Z,40.65
2018-03-06T12:52:30.265Z,45.38
2018-03-06T12:53:34.367Z,41.72
2018-03-06T12:54:38.435Z,42.28
2018-03-06T12:55:43.130Z,42.08
2018-03-06T12:56:47.889Z,45.95
2018-03-06T12:57:51.884Z,43.53
2018-03-06T12:58:55.914Z,46.47
2018-03-06T13:00:00.948Z,43.63
2018-03-06T13:01:05.896Z,50.85
2018-03-06T13:02:10.024Z,46.13
2018-03-06T13:03:14.060Z,46.47
2018-03-06T13:04:18.924Z,42.65
2018-03-06T13:05:22.932Z,43.65
2018-03-06T13:06:27.006Z,41.50
2018-03-06T13:07:31.085Z,43.60
2018-03-06T13:08:37.530Z,42.80
2018-03-06T13:09:42.339Z,41.33
2018-03-06T13:10:46.344Z,42.47
2018-03-06T13:11:51.074Z,49.35
2018-03-06T13:12:56.602Z,47.50
2018-03-06T13:14:00.521Z,44.42
2018-03-06T13:15:04.569Z,46.35
2018-03-06T13:16:08.606Z,42.08
2018-03-06T13:17:13.788Z,42.50
2018-03-06T13:18:17.944Z,46.10
2018-03-06T13:19:24.038Z,44.70
2018-03-06T13:20:27.884Z,45.53
2018-03-06T13:21:37.798Z,48.40
2018-03-06T13:22:41.879Z,42.92
2018-03-06T13:23:45.710Z,44.38
2018-03-06T13:24:49.681Z,52.45
2018-03-06T13:25:53.574Z,45.58
2018-03-06T13:26:58.055Z,44.10
2018-03-06T13:28:02.910Z,49.90
2018-03-06T13:29:07.020Z,53.47
2018-03-06T13:30:11.681Z,45.75
2018-03-06T13:31:15.882Z,50.47
2018-03-06T13:32:21.114Z,41.53
2018-03-06T13:33:26.745Z,43.87
2018-03-06T13:34:31.677Z,40.15
2018-03-06T13:35:36.265Z,79.18
2018-03-06T13:36:41.020Z,44.45
2018-03-06T13:37:44.933Z,53.85
2018-03-06T13:38:48.927Z,88.75
2018-03-06T13:39:52.826Z,51.78
2018-03-06T13:40:56.768Z,49.28
2018-03-06T13:42:01.441Z,47.90
2018-03-06T13:43:05.441Z,54.53
2018-03-06T13:44:09.439Z,52.15
2018-03-06T13:45:13.264Z,51.37
2018-03-06T13:46:17.086Z,47.40
2018-03-06T13:47:22.195Z,47.35
2018-03-06T13:48:27.203Z,47.72
2018-03-06T13:49:32.969Z,49.33
2018-03-06T13:50:45.639Z,47.22
2018-03-06T13:51:49.643Z,44.28
2018-03-06T13:52:53.783Z,43.97
2018-03-06T13:53:58.732Z,45.10
2018-03-06T13:55:02.851Z,57.22
2018-03-06T13:56:07.327Z,51.35
2018-03-06T13:57:12.160Z,46.92
2018-03-06T13:58:16.290Z,40.50